Latest Weather Observations for Wagga Wagga

IDN60801

Issued at 3:35 pm EST Friday 1 August 2014 (issued every 30 minutes, with the page automatically refreshed every 10 minutes)

About weather observations | Map of weather stations | Latest weather observations for NSW | Other Formats
Station Details ID: 072150 Name: WAGGA WAGGA AMO Lat: -35.16 Lon: 147.46 Height: 212.0 m
Data from the previous 72 hours. | See also: Recent months at Wagga Wagga
Date/Time
EST
Temp
°C
App
Temp
°C
Dew
Point
Rel
Hum
%
Delta-T
°C
Wind Press
QNH
hPa
Press
MSL
hPa
Rain
since 9 am
mm
Dir
 
Spd
km/h
Gust
km/h
Spd
kts
Gust
kts
01/03:30pm 8.3 0.4 2.1 65 2.6 W 33 44 18 24 1011.2 - 1.4
01/03:00pm 8.3 1.8 4.7 78 1.6 W 28 39 15 21 1011.0 1011.3 1.4
01/02:30pm 7.6 -0.1 3.4 75 1.8 W 33 48 18 26 1010.4 - 0.8
01/02:25pm 7.8 0.6 3.1 72 2.0 W 30 48 16 26 1010.3 - 0.8
01/02:24pm 7.8 0.7 3.4 74 1.9 W 30 48 16 26 1010.3 - 0.8
01/02:00pm 6.9 -1.7 4.6 85 1.0 W 39 50 21 27 1010.3 1010.6 0.8
01/01:55pm 7.2 -0.8 3.7 78 1.5 WSW 35 48 19 26 1010.2 - 0.8
01/01:30pm 8.4 2.0 5.1 80 1.5 W 28 41 15 22 1010.3 - 0.8
01/01:00pm 8.0 2.7 4.9 81 1.4 WNW 22 30 12 16 1010.2 1010.5 0.6
01/12:42pm 6.7 -0.2 2.4 74 1.8 WNW 28 46 15 25 1010.3 - 0.4
01/12:30pm 7.0 0.3 3.5 78 1.5 WNW 28 35 15 19 1010.5 - 0.2
01/12:18pm 6.1 -1.7 3.0 80 1.3 W 33 50 18 27 1010.8 - 0.2
01/12:00pm 7.3 1.0 1.7 67 2.3 NW 24 35 13 19 1010.9 1011.2 0.0
01/11:30am 7.5 2.3 3.3 75 1.8 W 20 28 11 15 1011.3 - 0.0
01/11:00am 7.5 2.3 3.3 75 1.8 WNW 20 28 11 15 1011.4 1011.7 0.0
01/10:30am 7.4 0.9 2.9 73 1.9 WNW 26 35 14 19 1011.5 - 0.0
01/10:00am 7.2 1.9 3.2 76 1.7 WNW 20 28 11 15 1011.3 1011.6 0.0
01/09:30am 6.3 1.7 3.5 82 1.2 NW 17 26 9 14 1011.4 - 0.0
01/09:00am 6.0 1.4 3.7 85 1.0 WNW 17 22 9 12 1011.5 1011.9 0.0
01/08:30am 5.7 1.0 3.3 84 1.0 WNW 17 24 9 13 1011.2 - 0.0
01/08:00am 5.7 0.7 3.6 86 0.9 WNW 19 28 10 15 1010.9 1011.3 0.0
01/07:30am 5.2 0.5 3.0 86 0.9 WNW 17 24 9 13 1010.7 - 0.0
01/07:00am 5.0 0.7 3.1 87 0.8 WNW 15 19 8 10 1010.3 1010.7 0.0
01/06:30am 4.8 0.4 2.9 87 0.8 WNW 15 17 8 9 1009.6 - 0.0
01/06:00am 5.0 1.1 3.3 89 0.7 W 13 19 7 10 1008.8 1009.2 0.0
01/05:30am 5.5 1.7 3.9 89 0.7 WNW 13 17 7 9 1008.5 - 0.0
01/05:00am 5.2 2.1 3.8 91 0.6 NW 9 11 5 6 1008.1 1008.5 0.0
01/04:30am 5.9 2.9 4.3 89 0.7 WNW 9 11 5 6 1007.9 - 0.0
01/04:00am 6.4 3.5 4.6 88 0.8 WNW 9 13 5 7 1007.7 1008.1 0.0
01/03:30am 6.5 3.6 4.7 88 0.8 W 9 11 5 6 1007.8 - 0.0
01/03:00am 6.9 3.6 4.4 84 1.1 W 11 13 6 7 1007.7 1008.1 0.0
01/02:30am 7.5 2.6 4.3 80 1.4 WSW 19 30 10 16 1007.8 - 0.0
01/02:00am 8.5 2.1 5.0 78 1.6 W 28 41 15 22 1007.5 1007.9 0.0
01/01:30am 9.1 4.3 4.7 74 2.0 W 19 26 10 14 1007.0 - 0.0
01/01:00am 9.2 3.1 5.0 75 1.9 W 26 35 14 19 1006.8 1007.2 0.0
01/12:30am 9.9 3.9 5.4 73 2.1 W 26 35 14 19 1006.4 - 0.0
01/12:00am 10.2 5.5 5.2 71 2.3 W 19 28 10 15 1006.1 1006.5 0.0
 
Date/Time
EST
Temp
°C
App
Temp
°C
Dew
Point
Rel
Hum
%
Delta-T
°C
Wind Press
QNH
hPa
Press
MSL
hPa
Rain
since 9 am
mm
Dir
 
Spd
km/h
Gust
km/h
Spd
kts
Gust
kts
31/11:30pm 10.3 5.6 5.1 70 2.4 WSW 19 26 10 14 1005.8 - 0.0
31/11:00pm 12.2 4.5 2.5 51 4.3 W 32 44 17 24 1005.4 1005.8 0.0
31/10:30pm 14.0 8.0 -1.9 33 6.5 W 20 33 11 18 1004.3 - 0.0
31/10:00pm 13.6 6.9 -0.8 37 6.0 N 24 33 13 18 1003.3 1003.7 0.0
31/09:30pm 13.5 6.9 -0.3 38 5.8 NNW 24 32 13 17 1003.7 - 0.0
31/09:00pm 12.6 7.3 -0.4 40 5.4 NNW 17 24 9 13 1003.9 1004.3 0.0
31/08:30pm 12.1 7.3 0.5 45 4.9 N 15 22 8 12 1004.5 - 0.0
31/08:00pm 12.7 8.4 0.8 44 5.1 N 13 17 7 9 1004.7 1005.0 0.0
31/07:30pm 12.4 8.7 2.2 50 4.5 N 11 17 6 9 1004.9 - 0.0
31/07:00pm 12.8 8.9 3.6 53 4.2 N 13 17 7 9 1005.1 1005.4 0.0
31/06:30pm 13.6 10.5 3.6 51 4.6 N 9 13 5 7 1004.9 - 0.0
31/06:00pm 14.4 10.9 3.3 47 5.1 N 11 17 6 9 1004.5 1004.8 0.0
31/05:30pm 15.5 11.3 1.9 40 6.1 NNW 13 15 7 8 1004.8 - 0.0
31/05:00pm 17.2 11.8 1.5 34 7.1 NNW 19 30 10 16 1004.5 1004.8 0.0
31/04:30pm 18.3 12.1 2.0 33 7.5 N 24 37 13 20 1004.4 - 0.0
31/04:00pm 19.0 12.8 2.2 32 7.8 NNW 24 35 13 19 1005.1 1005.4 0.0
31/03:30pm 19.2 11.2 0.6 28 8.4 NNW 32 43 17 23 1005.5 - 0.0
31/03:00pm 19.5 11.9 0.8 28 8.5 NW 30 52 16 28 1006.0 1006.4 0.0
31/02:30pm 19.4 12.1 2.6 32 7.9 NNW 30 48 16 26 1006.5 - 0.0
31/02:27pm 19.4 12.7 3.5 35 7.6 NNW 28 48 15 26 1006.5 - 0.0
31/02:00pm 19.2 12.0 2.9 34 7.7 NNW 30 41 16 22 1007.1 1007.5 0.0
31/01:41pm 19.0 12.2 3.2 35 7.5 NW 28 46 15 25 1007.5 - 0.0
31/01:30pm 19.0 11.3 2.5 33 7.7 NNW 32 46 17 25 1007.7 - 0.0
31/01:00pm 18.5 11.7 3.3 36 7.2 NNW 28 37 15 20 1008.6 1009.0 0.0
31/12:30pm 18.3 12.5 4.4 39 6.7 NNW 24 33 13 18 1009.5 - 0.0
31/12:00pm 17.6 12.6 6.4 47 5.6 NNW 22 30 12 16 1010.4 1010.8 0.0
31/11:30am 16.5 11.8 5.1 47 5.5 NNW 19 26 10 14 1011.2 - 0.0
31/11:00am 15.6 11.3 5.2 50 5.0 NNW 17 26 9 14 1012.0 1012.4 0.0
31/10:30am 14.1 11.7 6.8 61 3.6 NNW 9 11 5 6 1012.7 - 0.0
31/10:00am 13.1 11.1 7.0 66 3.0 NNW 7 13 4 7 1013.1 1013.6 0.0
31/09:30am 11.1 8.5 6.0 71 2.4 N 9 11 5 6 1013.3 - 0.0
31/09:00am 10.4 7.9 4.7 68 2.6 N 7 9 4 5 1013.4 1013.9 0.0
31/08:30am 9.3 6.9 5.4 76 1.8 ENE 7 7 4 4 1013.5 - 0.0
31/08:00am 6.5 3.6 4.7 88 0.8 ESE 9 11 5 6 1013.6 1014.1 0.0
31/07:30am 3.2 0.3 2.5 95 0.3 S 7 9 4 5 1013.8 - 0.0
31/07:00am 3.1 0.3 2.9 99 0.1 ESE 7 7 4 4 1013.6 1014.1 0.0
31/06:30am 3.9 1.1 2.9 93 0.4 E 7 9 4 5 1013.5 - 0.0
31/06:00am 4.5 1.1 3.8 95 0.3 ESE 11 13 6 7 1013.5 1014.0 0.0
31/05:30am 4.3 0.8 3.6 95 0.3 ESE 11 13 6 7 1013.5 - 0.0
31/05:00am 4.2 1.0 3.2 93 0.4 E 9 11 5 6 1013.7 1014.2 0.0
31/04:30am 4.5 1.4 3.8 95 0.3 ESE 9 9 5 5 1013.9 - 0.0
31/04:00am 5.0 2.4 4.3 95 0.3 E 7 7 4 4 1014.4 1014.8 0.0
31/03:30am 5.9 3.4 5.0 94 0.4 E 7 7 4 4 1014.6 - 0.0
31/03:00am 5.9 3.4 5.0 94 0.4 E 7 7 4 4 1015.0 1015.4 0.0
31/02:30am 6.2 3.8 5.3 94 0.4 E 7 7 4 4 1015.2 - 0.0
31/02:00am 7.1 4.5 6.2 94 0.4 E 9 9 5 5 1015.6 1016.0 0.0
31/01:30am 7.0 4.4 6.3 95 0.3 E 9 9 5 5 1015.8 - 0.0
31/01:00am 7.3 6.4 6.2 93 0.5 CALM 0 0 0 0 1016.0 1016.4 0.0
31/12:30am 8.6 8.0 7.3 91 0.6 CALM 0 0 0 0 1016.1 - 0.0
31/12:00am 8.1 7.4 6.8 91 0.6 CALM 0 0 0 0 1016.3 1016.7 0.0
 
Date/Time
EST
Temp
°C
App
Temp
°C
Dew
Point
Rel
Hum
%
Delta-T
°C
Wind Press
QNH
hPa
Press
MSL
hPa
Rain
since 9 am
mm
Dir
 
Spd
km/h
Gust
km/h
Spd
kts
Gust
kts
30/11:30pm 8.3 7.7 7.2 93 0.5 CALM 0 0 0 0 1016.5 - 0.0
30/11:00pm 7.7 7.0 6.8 94 0.4 CALM 0 0 0 0 1016.5 1016.9 0.0
30/10:30pm 9.0 7.4 7.8 92 0.6 ENE 6 6 3 3 1016.6 - 0.0
30/10:00pm 9.4 9.0 8.2 92 0.6 CALM 0 0 0 0 1016.6 1017.0 0.0
30/09:30pm 9.5 9.2 8.5 93 0.5 CALM 0 0 0 0 1016.7 - 0.0
30/09:00pm 9.6 9.2 8.2 91 0.7 CALM 0 0 0 0 1016.8 1017.2 0.0
30/08:30pm 11.0 10.9 9.6 91 0.7 CALM 0 0 0 0 1016.7 - 0.0
30/08:00pm 12.3 12.4 10.2 87 1.1 CALM 0 0 0 0 1017.0 1017.5 0.0
30/07:30pm 12.0 12.1 10.1 88 1.0 CALM 0 0 0 0 1017.1 - 0.0
30/07:00pm 12.4 11.7 9.9 85 1.3 ENE 4 6 2 3 1016.9 1017.4 0.0
30/06:30pm 13.0 11.9 9.9 81 1.6 NE 6 7 3 4 1016.8 - 0.0
30/06:00pm 14.0 13.0 10.2 78 2.0 NNE 6 7 3 4 1016.8 1017.2 0.0
30/05:30pm 15.1 14.1 10.2 72 2.6 N 6 7 3 4 1016.9 - 0.0
30/05:00pm 15.4 13.7 9.9 70 2.9 NW 9 9 5 5 1016.8 1017.2 0.0
30/04:30pm 15.7 12.7 9.4 66 3.3 NW 15 19 8 10 1016.7 - 0.0
30/04:00pm 16.4 13.8 9.3 63 3.7 NW 13 19 7 10 1016.4 1016.8 0.0
30/03:30pm 15.7 13.5 9.4 66 3.3 WNW 11 13 6 7 1016.7 - 0.0
30/03:00pm 15.7 12.4 9.4 66 3.3 WNW 17 20 9 11 1016.8 1017.2 0.0
30/02:30pm 16.0 13.3 8.8 62 3.7 W 13 19 7 10 1016.8 - 0.0
30/02:00pm 15.7 13.0 10.2 70 2.9 WNW 15 20 8 11 1017.0 1017.5 0.0
30/01:30pm 15.8 11.1 9.3 65 3.4 WNW 24 28 13 15 1017.3 - 0.0
30/01:00pm 15.7 11.5 9.6 67 3.2 NW 22 32 12 17 1017.6 1018.1 0.0
30/12:30pm 14.9 12.0 9.7 71 2.7 WNW 15 20 8 11 1018.0 - 0.0
30/12:00pm 15.1 11.2 9.3 68 3.0 NW 20 26 11 14 1018.5 1019.0 0.0
30/11:30am 16.2 13.1 10.2 67 3.2 W 17 20 9 11 1018.8 - 0.0
30/11:00am 14.5 9.4 9.3 71 2.7 WNW 26 35 14 19 1019.1 1019.5 0.0
30/10:30am 14.6 9.9 9.4 71 2.7 WNW 24 32 13 17 1019.2 - 0.0
30/10:00am 13.7 9.7 9.0 73 2.4 WNW 20 30 11 16 1019.2 1019.6 0.0
30/09:30am 13.2 9.4 8.9 75 2.2 W 19 30 10 16 1019.1 - 0.0
30/09:00am 12.4 8.9 8.8 79 1.8 WNW 17 20 9 11 1018.9 1019.4 0.2
30/08:30am 12.2 9.0 8.6 78 1.8 WNW 15 24 8 13 1018.9 - 0.2
30/08:00am 12.1 9.0 8.7 80 1.7 WNW 15 20 8 11 1018.5 1019.0 0.2
30/07:30am 12.1 8.9 8.5 78 1.8 NW 15 24 8 13 1018.2 - 0.2
30/07:00am 11.9 8.4 8.7 81 1.6 WNW 17 20 9 11 1017.9 1018.4 0.2
30/06:30am 11.7 8.1 8.5 81 1.6 NW 17 20 9 11 1017.6 - 0.2
30/06:02am 11.6 8.7 8.2 79 1.7 NW 13 15 7 8 1017.5 - 0.2
30/06:00am 11.6 8.7 8.2 79 1.7 NW 13 17 7 9 1017.5 1018.0 0.2
30/05:30am 11.6 8.6 7.9 78 1.8 NW 13 17 7 9 1017.2 - 0.2
30/05:00am 11.4 8.0 7.5 77 1.9 WNW 15 17 8 9 1017.0 1017.5 0.2
30/04:30am 11.4 8.4 7.5 77 1.9 WNW 13 15 7 8 1017.0 - 0.2
30/04:00am 11.2 8.8 7.0 75 2.0 NW 9 9 5 5 1017.1 1017.6 0.2
30/03:30am 10.8 9.4 7.3 79 1.7 NW 4 7 2 4 1017.1 - 0.2
30/03:00am 10.9 8.6 7.4 79 1.7 SW 9 9 5 5 1017.3 1017.8 0.2
30/02:30am 10.9 8.4 6.7 75 2.0 WSW 9 11 5 6 1017.3 - 0.2
30/02:00am 10.1 7.3 7.0 81 1.5 WSW 11 13 6 7 1017.1 1017.6 0.2
30/01:30am 10.1 6.8 6.5 78 1.7 WSW 13 17 7 9 1017.2 - 0.2
30/01:00am 9.6 6.9 5.7 76 1.8 NW 9 11 5 6 1017.4 1017.9 0.2
30/12:30am 8.6 6.5 6.5 87 1.0 WSW 7 7 4 4 1017.5 - 0.2
30/12:00am 8.3 7.6 7.0 91 0.6 CALM 0 7 0 4 1017.6 1018.1 0.2
 
Date/Time
EST
Temp
°C
App
Temp
°C
Dew
Point
Rel
Hum
%
Delta-T
°C
Wind Press
QNH
hPa
Press
MSL
hPa
Rain
since 9 am
mm
Dir
 
Spd
km/h
Gust
km/h
Spd
kts
Gust
kts
29/11:30pm 8.4 7.6 6.7 89 0.8 CALM 0 0 0 0 1017.5 - 0.2
29/11:00pm 8.7 7.8 6.1 84 1.2 CALM 0 0 0 0 1017.7 1018.2 0.2
29/10:30pm 8.9 8.1 6.3 84 1.2 CALM 0 0 0 0 1017.7 - 0.2
29/10:00pm 8.4 6.3 5.8 84 1.2 E 6 7 3 4 1017.6 1018.1 0.2
29/09:30pm 8.0 6.9 5.3 83 1.2 CALM 0 0 0 0 1017.6 - 0.2
29/09:00pm 6.7 5.5 4.4 85 1.0 CALM 0 2 0 1 1017.4 1017.9 0.2
29/08:30pm 6.0 4.7 4.1 88 0.8 CALM 0 0 0 0 1017.3 - 0.2
29/08:00pm 7.8 5.6 5.4 85 1.1 E 6 7 3 4 1017.1 1017.6 0.2
29/07:30pm 8.2 6.8 5.3 82 1.3 S 2 7 1 4 1016.8 - 0.2
29/07:00pm 7.3 5.4 4.8 84 1.1 ENE 4 7 2 4 1016.6 1017.0 0.2
29/06:30pm 10.0 7.2 5.0 71 2.3 E 9 11 5 6 1016.2 - 0.2
29/06:00pm 12.6 10.3 5.6 62 3.3 WNW 7 7 4 4 1016.0 1016.4 0.2
29/05:30pm 14.0 11.5 4.8 54 4.3 WNW 7 7 4 4 1016.1 - 0.2
29/05:00pm 14.6 11.4 4.9 52 4.6 WNW 11 13 6 7 1015.9 1016.3 0.2
29/04:30pm 15.9 12.3 5.0 48 5.2 WNW 13 17 7 9 1015.5 - 0.0
29/04:00pm 16.2 11.7 4.4 45 5.6 WNW 17 20 9 11 1015.7 1016.1 0.0

Other Formats:

Comma delimited format used in spreadsheet applications
http://www.bom.gov.au/fwo/IDN60801/IDN60801.94910.axf

JavaScript Object Notation format (JSON) in row-major order
http://www.bom.gov.au/fwo/IDN60801/IDN60801.94910.json